Terminal Aerodrome Forecast
Issued by NWS North Platte, NE

Home | Current Version | Previous Version | Text Only | Print | Product List | Glossary Off
Versions: 1 2 3 4 5 6 7 8 9 10 11 12 13 14 15 16 17 18 19

000
FTUS43 KLBF 200600 AAA
TAFVTN
TAF AMD
KVTN 200647Z 2007/2106 VRB04KT 6SM -RA OVC006
      TEMPO 2007/2010 4SM RA SCT006 OVC015
     FM201000 VRB04KT P6SM BKN006 OVC015
     FM201800 36009KT P6SM OVC025
     FM210000 04006KT P6SM OVC050=

USA.gov is the U.S. government's official web portal to all federal, state and local government web resources and services.